createdAt,value
2019-02-22T00:00:52.663Z,83.11
2019-02-22T00:01:52.709Z,83.12
2019-02-22T00:02:52.661Z,82.93
2019-02-22T00:03:52.851Z,82.97
2019-02-22T00:04:52.653Z,82.93
2019-02-22T00:05:52.714Z,82.9
2019-02-22T00:06:52.663Z,82.71
2019-02-22T00:07:52.970Z,82.68
2019-02-22T00:08:52.926Z,82.72
2019-02-22T00:09:52.845Z,82.63
2019-02-22T00:10:52.581Z,82.55
2019-02-22T00:11:52.891Z,82.45
2019-02-22T00:12:53.376Z,82.59
2019-02-22T00:13:52.407Z,82.79
2019-02-22T00:14:52.408Z,82.68
2019-02-22T00:15:52.408Z,82.58
2019-02-22T00:16:52.927Z,82.44
2019-02-22T00:17:52.725Z,82.35
2019-02-22T00:18:52.998Z,82.49
2019-02-22T00:19:52.708Z,82.23
2019-02-22T00:20:52.693Z,82.32
2019-02-22T00:21:52.687Z,82.39
2019-02-22T00:22:52.943Z,82.4
2019-02-22T00:23:52.687Z,82.34
2019-02-22T00:24:52.538Z,82.14
2019-02-22T00:25:53.408Z,82.01
2019-02-22T00:26:53.211Z,82.16
2019-02-22T00:27:52.860Z,82.1
2019-02-22T00:28:53.432Z,82.26
2019-02-22T00:29:53.333Z,82.01
2019-02-22T00:30:52.911Z,82.13
2019-02-22T00:31:52.645Z,82.19
2019-02-22T00:32:52.881Z,82.1
2019-02-22T00:33:52.570Z,82.06
2019-02-22T00:34:53.793Z,82.35
2019-02-22T00:35:53.981Z,82.19
2019-02-22T00:36:52.785Z,82.14
2019-02-22T00:37:52.720Z,82.02
2019-02-22T00:41:52.730Z,82.06
2019-02-22T00:42:52.531Z,81.97
2019-02-22T00:43:53.400Z,82.17
2019-02-22T00:44:52.551Z,81.97
2019-02-22T00:45:52.617Z,82.54
2019-02-22T00:46:52.896Z,82.4
2019-02-22T00:47:52.653Z,82.4
2019-02-22T00:48:52.625Z,82.17
2019-02-22T00:49:52.620Z,82.2
2019-02-22T00:50:52.549Z,82.24
2019-02-22T00:51:53.478Z,82.17
2019-02-22T00:52:54.367Z,82.09
2019-02-22T00:53:53.099Z,82.07
2019-02-22T00:54:52.787Z,82.05
2019-02-22T00:55:52.632Z,82.15
2019-02-22T00:56:53.907Z,82.07
2019-02-22T00:57:52.673Z,82.12
2019-02-22T00:58:52.646Z,82.04
2019-02-22T00:59:52.641Z,82.02
2019-02-22T01:00:52.671Z,82.68
2019-02-22T01:01:53.508Z,83.03
2019-02-22T01:02:53.044Z,82.83
2019-02-22T01:03:52.739Z,82.68
2019-02-22T01:04:53.057Z,82.95
2019-02-22T01:05:52.515Z,82.68
2019-02-22T01:06:53.199Z,82.81
2019-02-22T01:07:52.646Z,82.63
2019-02-22T01:08:52.543Z,82.77
2019-02-22T01:09:52.947Z,82.89
2019-02-22T01:10:53.199Z,82.61
2019-02-22T01:11:52.623Z,82.48
2019-02-22T01:12:52.654Z,82.53
2019-02-22T01:13:52.526Z,82.52
2019-02-22T01:14:52.520Z,82.46
2019-02-22T01:16:52.666Z,82.4
2019-02-22T01:17:52.507Z,82.42
2019-02-22T01:18:52.947Z,82.41
2019-02-22T01:19:53.938Z,82.91
2019-02-22T01:20:54.558Z,83.21
2019-02-22T01:21:52.477Z,83.57
2019-02-22T01:22:52.591Z,84.05
2019-02-22T01:23:52.560Z,85.11
2019-02-22T01:24:53.025Z,85.65
2019-02-22T01:25:52.727Z,85.32
2019-02-22T01:26:53.014Z,85.34
2019-02-22T01:27:52.572Z,85.65
2019-02-22T01:28:52.557Z,85.53
2019-02-22T01:29:52.669Z,85.62
2019-02-22T01:30:52.296Z,85.58
2019-02-22T01:31:52.603Z,84.89
2019-02-22T01:32:52.569Z,85.08
2019-02-22T01:33:54.167Z,84.93
2019-02-22T01:34:52.745Z,84.54
2019-02-22T01:35:52.499Z,84.86
2019-02-22T01:36:54.315Z,85.01
2019-02-22T01:37:52.531Z,84.51
2019-02-22T01:38:52.290Z,84.21
2019-02-22T01:39:52.297Z,84.29
2019-02-22T01:40:52.294Z,84.05
2019-02-22T01:41:52.283Z,84.27
2019-02-22T01:42:52.669Z,84.02
2019-02-22T01:43:52.477Z,83.79
2019-02-22T01:44:52.563Z,83.72
2019-02-22T01:45:52.955Z,83.65
2019-02-22T01:46:52.471Z,83.6
2019-02-22T01:47:52.644Z,83.51
2019-02-22T01:48:53.330Z,83.83
2019-02-22T01:49:52.642Z,84.29
2019-02-22T01:50:54.287Z,83.82
2019-02-22T01:51:54.288Z,84.52
2019-02-22T01:52:54.298Z,84.74
2019-02-22T01:53:54.037Z,84.27
2019-02-22T01:54:52.483Z,83.99
2019-02-22T01:55:54.295Z,83.86
2019-02-22T01:56:52.275Z,85.22
2019-02-22T01:57:52.269Z,84.49
2019-02-22T01:58:52.270Z,84.24
2019-02-22T01:59:52.267Z,84.99
2019-02-22T02:00:52.503Z,85.53
2019-02-22T02:01:54.274Z,84.76
2019-02-22T02:02:52.255Z,84.41
2019-02-22T02:03:52.262Z,84.25
2019-02-22T02:04:52.252Z,84.08
2019-02-22T02:05:52.495Z,84.27
2019-02-22T02:06:52.603Z,84.21
2019-02-22T02:07:52.864Z,84.86
2019-02-22T02:08:52.473Z,84.89
2019-02-22T02:09:52.549Z,85.19
2019-02-22T02:10:54.260Z,84.71
2019-02-22T02:11:52.457Z,84.47
2019-02-22T02:12:53.012Z,84.47
2019-02-22T02:13:52.543Z,84.34
2019-02-22T02:14:52.729Z,84.3
2019-02-22T02:15:52.510Z,84.29
2019-02-22T02:16:52.461Z,84.16
2019-02-22T02:17:52.826Z,84.1
2019-02-22T02:18:52.404Z,84.04
2019-02-22T02:19:52.435Z,83.99
2019-02-22T02:20:52.725Z,84.5
2019-02-22T02:21:52.506Z,84.32
2019-02-22T02:22:52.462Z,84.16
2019-02-22T02:23:52.869Z,84.14
2019-02-22T02:24:52.681Z,84.84
2019-02-22T02:25:52.883Z,85.73
2019-02-22T02:26:53.264Z,84.92
2019-02-22T02:27:54.232Z,84.51
2019-02-22T02:28:52.590Z,84.45
2019-02-22T02:29:52.405Z,84.54
2019-02-22T02:30:52.933Z,84.52
2019-02-22T02:31:54.230Z,84.3
2019-02-22T02:32:52.929Z,84.32
2019-02-22T02:33:52.629Z,84.83
2019-02-22T02:34:52.584Z,84.31
2019-02-22T02:35:52.744Z,84.96
2019-02-22T02:36:54.229Z,85.03
2019-02-22T02:37:54.223Z,84.66
2019-02-22T02:38:52.879Z,84.55
2019-02-22T02:39:52.557Z,84.33
2019-02-22T02:40:52.671Z,85.42
2019-02-22T02:41:52.467Z,84.84
2019-02-22T02:42:52.498Z,84.54
2019-02-22T02:43:52.221Z,84.45
2019-02-22T02:44:52.641Z,84.34
2019-02-22T02:45:52.446Z,84.58
2019-02-22T02:46:52.405Z,84.3
2019-02-22T02:47:53.338Z,84.68
2019-02-22T02:48:52.852Z,84.94
2019-02-22T02:49:52.498Z,84.46
2019-02-22T02:50:52.465Z,84.71
2019-02-22T02:51:52.747Z,84.83
2019-02-22T02:52:52.654Z,84.55
2019-02-22T02:53:52.624Z,84.48
2019-02-22T02:54:52.511Z,85.15
2019-02-22T02:55:52.405Z,85.08
2019-02-22T02:56:53.191Z,84.53
2019-02-22T02:57:52.429Z,84.65
2019-02-22T02:58:53.281Z,84.89
2019-02-22T02:59:54.208Z,84.62
2019-02-22T03:00:52.377Z,85.2
2019-02-22T03:01:52.583Z,85.42
2019-02-22T03:02:54.195Z,85.49
2019-02-22T03:03:54.407Z,85.49
2019-02-22T03:04:52.432Z,85.43
2019-02-22T03:05:52.633Z,84.86
2019-02-22T03:06:52.466Z,84.76
2019-02-22T03:07:52.450Z,84.51
2019-02-22T03:08:53.064Z,84.43
2019-02-22T03:09:52.880Z,84.3
2019-02-22T03:10:52.355Z,84.34
2019-02-22T03:11:52.487Z,84.47
2019-02-22T03:12:52.481Z,84.87
2019-02-22T03:13:52.907Z,84.67
2019-02-22T03:14:54.179Z,84.73
2019-02-22T03:15:52.700Z,84.29
2019-02-22T03:16:52.647Z,84.19
2019-02-22T03:17:52.612Z,84.49
2019-02-22T03:18:52.396Z,84.56
2019-02-22T03:19:53.229Z,84.64
2019-02-22T03:20:52.768Z,84.26
2019-02-22T03:21:52.326Z,84.38
2019-02-22T03:22:52.856Z,84.21
2019-02-22T03:23:52.399Z,84.18
2019-02-22T03:24:53.660Z,84.08
2019-02-22T03:25:52.523Z,83.92
2019-02-22T03:26:52.671Z,83.93
2019-02-22T03:27:52.782Z,83.89
2019-02-22T03:28:52.469Z,84.06
2019-02-22T03:29:52.708Z,83.76
2019-02-22T03:30:52.802Z,83.65
2019-02-22T03:31:52.494Z,83.73
2019-02-22T03:32:52.615Z,83.53
2019-02-22T03:33:52.513Z,83.53
2019-02-22T03:34:52.328Z,83.45
2019-02-22T03:35:52.451Z,83.51
2019-02-22T03:36:52.538Z,83.32
2019-02-22T03:37:52.355Z,83.4
2019-02-22T03:38:52.478Z,83.46
2019-02-22T03:39:52.310Z,83.29
2019-02-22T03:40:52.367Z,83.19
2019-02-22T03:41:52.567Z,83.09
2019-02-22T03:42:52.913Z,83.03
2019-02-22T03:43:52.491Z,82.85
2019-02-22T03:44:52.330Z,82.64
2019-02-22T03:45:52.995Z,82.79
2019-02-22T03:46:52.603Z,82.94
2019-02-22T03:47:52.312Z,82.79
2019-02-22T03:48:52.489Z,82.7
2019-02-22T03:49:52.627Z,82.77
2019-02-22T03:50:52.532Z,83.03
2019-02-22T03:51:52.995Z,82.74
2019-02-22T03:52:54.122Z,82.73
2019-02-22T03:53:52.347Z,82.96
2019-02-22T03:54:52.468Z,82.82
2019-02-22T03:55:52.662Z,83
2019-02-22T03:56:52.447Z,82.76
2019-02-22T03:57:52.574Z,82.69
2019-02-22T03:58:52.403Z,82.6
2019-02-22T03:59:52.894Z,82.78
2019-02-22T04:00:52.353Z,82.59
2019-02-22T04:01:52.602Z,82.57
2019-02-22T04:02:52.355Z,82.6
2019-02-22T04:03:52.289Z,82.55
2019-02-22T04:04:52.370Z,82.71
2019-02-22T04:05:52.435Z,82.64
2019-02-22T04:06:52.340Z,82.62
2019-02-22T04:07:52.357Z,82.9
2019-02-22T04:08:52.321Z,82.6
2019-02-22T04:09:52.657Z,82.64
2019-02-22T04:10:52.665Z,82.63
2019-02-22T04:11:52.567Z,82.62
2019-02-22T04:12:52.288Z,82.54
2019-02-22T04:13:53.046Z,82.52
2019-02-22T04:14:52.792Z,82.49
2019-02-22T04:15:52.400Z,82.4
2019-02-22T04:16:52.914Z,82.4
2019-02-22T04:17:52.310Z,82.47
2019-02-22T04:18:52.612Z,82.58
2019-02-22T04:19:52.241Z,82.72
2019-02-22T04:20:53.193Z,82.53
2019-02-22T04:21:52.286Z,82.61
2019-02-22T04:22:52.547Z,82.59
2019-02-22T04:23:52.294Z,82.56
2019-02-22T04:24:52.233Z,82.63
2019-02-22T04:25:52.299Z,82.6
2019-02-22T04:26:52.284Z,82.49
2019-02-22T04:27:52.772Z,82.56
2019-02-22T04:28:52.349Z,82.64
2019-02-22T04:29:52.367Z,82.45
2019-02-22T04:30:52.369Z,82.85
2019-02-22T04:31:52.508Z,82.82
2019-02-22T04:32:52.224Z,82.73
2019-02-22T04:33:52.286Z,82.63
2019-02-22T04:34:52.309Z,82.69
2019-02-22T04:35:53.543Z,82.68
2019-02-22T04:36:54.075Z,82.6
2019-02-22T04:37:52.651Z,82.52
2019-02-22T04:38:52.725Z,82.67
2019-02-22T04:39:52.219Z,82.6
2019-02-22T04:40:52.404Z,82.76
2019-02-22T04:41:57.908Z,82.68
2019-02-22T04:42:52.327Z,82.61
2019-02-22T04:43:52.379Z,82.65
2019-02-22T04:44:52.227Z,82.52
2019-02-22T04:45:52.486Z,82.51
2019-02-22T04:46:52.363Z,82.67
2019-02-22T04:47:52.395Z,82.53
2019-02-22T04:48:52.275Z,82.5
2019-02-22T04:49:54.055Z,82.52
2019-02-22T04:50:52.928Z,82.56
2019-02-22T04:51:54.054Z,82.75
2019-02-22T04:52:52.533Z,82.68
2019-02-22T04:53:52.247Z,82.77
2019-02-22T04:54:52.529Z,82.72
2019-02-22T04:55:52.556Z,82.67
2019-02-22T04:56:52.764Z,82.69
2019-02-22T04:57:53.702Z,82.83
2019-02-22T04:58:52.191Z,82.78
2019-02-22T04:59:53.118Z,82.73
2019-02-22T05:00:53.070Z,82.86
2019-02-22T05:01:52.312Z,83.05
2019-02-22T05:02:52.351Z,83.16
2019-02-22T05:03:52.328Z,83.47
2019-02-22T05:04:52.299Z,83.31
2019-02-22T05:05:52.514Z,83.12
2019-02-22T05:06:52.420Z,83.89
2019-02-22T05:07:52.560Z,83.85
2019-02-22T05:08:52.545Z,83.62
2019-02-22T05:09:52.239Z,83.53
2019-02-22T05:10:52.546Z,83.82
2019-02-22T05:11:52.556Z,83.87
2019-02-22T05:12:54.032Z,83.57
2019-02-22T05:13:53.018Z,83.6
2019-02-22T05:14:53.494Z,83.36
2019-02-22T05:15:52.593Z,83.28
2019-02-22T05:16:53.727Z,83.48
2019-02-22T05:17:52.258Z,83.29
2019-02-22T05:18:53.716Z,83.38
2019-02-22T05:19:52.149Z,84.03
2019-02-22T05:20:52.518Z,83.96
2019-02-22T05:21:52.248Z,83.73
2019-02-22T05:23:03.230Z,83.76
2019-02-22T05:23:53.070Z,83.61
2019-02-22T05:24:52.441Z,83.46
2019-02-22T05:25:52.667Z,83.33
2019-02-22T05:26:52.961Z,83.35
2019-02-22T05:27:52.569Z,83.39
2019-02-22T05:28:52.464Z,83.9
2019-02-22T05:29:52.248Z,84.14
2019-02-22T05:30:52.215Z,83.9
2019-02-22T05:31:52.310Z,83.94
2019-02-22T05:32:52.491Z,83.79
2019-02-22T05:33:52.281Z,83.76
2019-02-22T05:34:52.152Z,83.73
2019-02-22T05:35:52.415Z,83.55
2019-02-22T05:36:52.423Z,83.69
2019-02-22T05:37:52.269Z,83.68
2019-02-22T05:38:52.323Z,83.65
2019-02-22T05:39:52.974Z,83.6
2019-02-22T05:40:52.858Z,84.03
2019-02-22T05:41:52.252Z,84.27
2019-02-22T05:42:52.182Z,84.42
2019-02-22T05:43:52.774Z,85.19
2019-02-22T05:44:53.969Z,85.12
2019-02-22T05:45:53.023Z,84.65
2019-02-22T05:47:00.170Z,84.45
2019-02-22T05:47:52.386Z,84.76
2019-02-22T05:48:52.170Z,84.39
2019-02-22T05:49:53.221Z,84.8
2019-02-22T05:50:52.213Z,84.88
2019-02-22T05:51:52.150Z,84.4
2019-02-22T05:52:52.430Z,84.2
2019-02-22T05:53:52.427Z,84.27
2019-02-22T05:54:53.959Z,84.44
2019-02-22T05:55:52.208Z,84.22
2019-02-22T05:56:55.052Z,84.23
2019-02-22T05:57:52.354Z,84.11
2019-02-22T05:58:52.115Z,84.03
2019-02-22T05:59:52.774Z,84.15
2019-02-22T06:00:51.928Z,84.05
2019-02-22T06:01:52.819Z,84.02
2019-02-22T06:02:52.282Z,83.97
2019-02-22T06:03:52.494Z,84.63
2019-02-22T06:04:52.293Z,84.52
2019-02-22T06:05:52.615Z,84.73
2019-02-22T06:06:53.936Z,84.38
2019-02-22T06:07:52.344Z,84.15
2019-02-22T06:08:52.549Z,84.45
2019-02-22T06:09:53.946Z,84.12
2019-02-22T06:10:52.437Z,84.11
2019-02-22T06:11:52.450Z,84.27
2019-02-22T06:12:53.002Z,84.05
2019-02-22T06:13:52.168Z,83.99
2019-02-22T06:14:52.205Z,84.32
2019-02-22T06:15:52.090Z,84.26
2019-02-22T06:16:52.494Z,84.39
2019-02-22T06:17:53.610Z,84.59
2019-02-22T06:18:52.291Z,85.13
2019-02-22T06:19:52.805Z,85.13
2019-02-22T06:20:52.505Z,85.37
2019-02-22T06:21:53.049Z,85.51
2019-02-22T06:22:53.929Z,85.42
2019-02-22T06:23:53.097Z,85.53
2019-02-22T06:24:52.433Z,85.41
2019-02-22T06:25:52.439Z,85.01
2019-02-22T06:26:52.295Z,84.77
2019-02-22T06:27:52.506Z,85.21
2019-02-22T06:28:52.559Z,85.35
2019-02-22T06:29:52.462Z,85.02
2019-02-22T06:30:52.579Z,84.87
2019-02-22T06:31:52.147Z,85.3
2019-02-22T06:32:52.173Z,84.89
2019-02-22T06:33:52.212Z,84.82
2019-02-22T06:34:52.391Z,84.7
2019-02-22T06:35:52.149Z,84.68
2019-02-22T06:37:01.060Z,84.73
2019-02-22T06:37:53.899Z,84.78
2019-02-22T06:38:52.333Z,85
2019-02-22T06:39:51.885Z,84.81
2019-02-22T06:40:51.892Z,85.87
2019-02-22T06:41:51.889Z,85.49
2019-02-22T06:42:52.242Z,85.89
2019-02-22T06:43:52.350Z,86.28
2019-02-22T06:44:52.668Z,86.15
2019-02-22T06:45:52.010Z,85.67
2019-02-22T06:46:52.074Z,85.46
2019-02-22T06:47:52.274Z,85.33
2019-02-22T06:48:52.139Z,85.39
2019-02-22T06:49:52.290Z,85.76
2019-02-22T06:50:53.018Z,85.35
2019-02-22T06:51:52.195Z,85.49
2019-02-22T06:52:51.859Z,86.04
2019-02-22T06:53:52.328Z,85.79
2019-02-22T06:54:52.951Z,86.78
2019-02-22T06:55:52.104Z,87.27
2019-02-22T06:56:52.127Z,86.69
2019-02-22T06:57:52.744Z,86.1
2019-02-22T06:58:52.158Z,86.07
2019-02-22T06:59:52.097Z,86.1
2019-02-22T07:00:52.374Z,85.95
2019-02-22T07:01:52.267Z,86.07
2019-02-22T07:02:52.015Z,86.16
2019-02-22T07:03:52.105Z,87.01
2019-02-22T07:04:52.390Z,87.06
2019-02-22T07:05:52.702Z,86.86
2019-02-22T07:06:53.880Z,87.65
2019-02-22T07:07:52.153Z,87.31
2019-02-22T07:08:52.520Z,87.17
2019-02-22T07:09:52.218Z,87.19
2019-02-22T07:10:52.636Z,86.57
2019-02-22T07:11:52.442Z,87.03
2019-02-22T07:12:56.283Z,86.33
2019-02-22T07:13:52.349Z,86.3
2019-02-22T07:14:52.252Z,86.38
2019-02-22T07:15:52.085Z,85.96
2019-02-22T07:16:52.008Z,85.92
2019-02-22T07:17:51.833Z,87.11
2019-02-22T07:18:52.589Z,87.43
2019-02-22T07:19:52.596Z,87.48
2019-02-22T07:20:52.395Z,87.34
2019-02-22T07:21:53.160Z,87.13
2019-02-22T07:22:53.840Z,87.23
2019-02-22T07:23:52.415Z,87.25
2019-02-22T07:24:52.159Z,87.15
2019-02-22T07:25:52.153Z,87.07
2019-02-22T07:26:52.555Z,87.25
2019-02-22T07:27:52.346Z,87.28
2019-02-22T07:28:52.897Z,87.21
2019-02-22T07:29:53.823Z,86.95
2019-02-22T07:30:52.230Z,86.87
2019-02-22T07:32:02.628Z,86.69
2019-02-22T07:32:52.349Z,86.7
2019-02-22T07:33:52.596Z,86.63
2019-02-22T07:34:52.183Z,86.58
2019-02-22T07:35:52.093Z,86.75
2019-02-22T07:36:52.156Z,86.63
2019-02-22T07:37:52.162Z,86.66
2019-02-22T07:38:52.419Z,86.73
2019-02-22T07:39:53.824Z,86.83
2019-02-22T07:40:52.879Z,86.61
2019-02-22T07:41:51.964Z,86.88
2019-02-22T07:42:52.444Z,86.86
2019-02-22T07:43:52.348Z,86.88
2019-02-22T07:44:52.064Z,86.86
2019-02-22T07:45:52.373Z,86.99
2019-02-22T07:46:52.366Z,87.07
2019-02-22T07:47:52.492Z,86.98
2019-02-22T07:48:52.963Z,87.04
2019-02-22T07:49:52.593Z,87.03
2019-02-22T07:50:57.237Z,86.84
2019-02-22T07:51:54.018Z,87.11
2019-02-22T07:52:53.797Z,87.16
2019-02-22T07:53:52.312Z,86.93
2019-02-22T07:54:53.789Z,86.87
2019-02-22T07:55:52.014Z,87.1
2019-02-22T07:56:53.810Z,87
2019-02-22T07:57:51.772Z,87.17
2019-02-22T07:58:51.783Z,87
2019-02-22T07:59:52.147Z,86.82
2019-02-22T08:00:52.260Z,86.92
2019-02-22T08:01:52.085Z,86.74
2019-02-22T08:02:53.816Z,86.92
2019-02-22T08:03:52.306Z,86.64
2019-02-22T08:04:53.775Z,86.78
2019-02-22T08:05:52.190Z,86.69
2019-02-22T08:06:52.808Z,86.69
2019-02-22T08:07:52.160Z,86.64
2019-02-22T08:08:52.211Z,86.66
2019-02-22T08:09:51.988Z,86.67
2019-02-22T08:10:52.068Z,86.51
2019-02-22T08:11:52.433Z,86.34
2019-02-22T08:12:53.131Z,86.12
2019-02-22T08:13:52.556Z,86.22
2019-02-22T08:14:51.970Z,86.43
2019-02-22T08:15:52.154Z,85.97
2019-02-22T08:16:52.279Z,86.25
2019-02-22T08:17:52.575Z,86.16
2019-02-22T08:19:00.850Z,85.93
2019-02-22T08:19:52.282Z,85.92
2019-02-22T08:20:52.306Z,86.01
2019-02-22T08:21:53.158Z,85.71
2019-02-22T08:22:51.910Z,85.75
2019-02-22T08:23:52.478Z,85.82
2019-02-22T08:24:52.005Z,85.61
2019-02-22T08:25:52.736Z,85.69
2019-02-22T08:26:52.035Z,85.72
2019-02-22T08:27:54.214Z,85.58
2019-02-22T08:28:52.249Z,85.68
2019-02-22T08:29:52.245Z,85.64
2019-02-22T08:30:52.374Z,85.41
2019-02-22T08:32:53.131Z,85.15
2019-02-22T08:33:52.480Z,85.01
2019-02-22T08:34:52.688Z,85.07
2019-02-22T08:35:53.752Z,85.16
2019-02-22T08:36:51.953Z,85.09
2019-02-22T08:37:52.201Z,85.18
2019-02-22T08:38:51.897Z,85.11
2019-02-22T08:39:58.456Z,85.07
2019-02-22T08:40:52.324Z,85.06
2019-02-22T08:41:52.119Z,85.08
2019-02-22T08:42:51.999Z,84.84
2019-02-22T08:43:52.446Z,84.89
2019-02-22T08:44:52.451Z,84.95
2019-02-22T08:45:52.003Z,85
2019-02-22T08:46:51.990Z,84.81
2019-02-22T08:47:52.982Z,84.79
2019-02-22T08:48:52.377Z,85.03
2019-02-22T08:49:51.719Z,84.94
2019-02-22T08:50:52.395Z,84.66
2019-02-22T08:51:52.709Z,84.6
2019-02-22T08:52:51.899Z,84.76
2019-02-22T08:53:52.309Z,84.57
2019-02-22T08:54:51.956Z,84.66
2019-02-22T08:55:51.989Z,84.83
2019-02-22T08:56:53.116Z,84.48
2019-02-22T08:57:52.438Z,84.73
2019-02-22T08:58:51.961Z,84.46
2019-02-22T08:59:51.986Z,84.55
2019-02-22T09:00:52.143Z,84.61
2019-02-22T09:01:52.005Z,84.34
2019-02-22T09:02:52.032Z,84.32
2019-02-22T09:03:53.706Z,84.29
2019-02-22T09:04:51.941Z,84.05
2019-02-22T09:05:52.187Z,84.12
2019-02-22T09:06:52.524Z,83.94
2019-02-22T09:07:52.723Z,83.99
2019-02-22T09:08:52.619Z,83.99
2019-02-22T09:09:52.312Z,83.99
2019-02-22T09:11:00.015Z,83.88
2019-02-22T09:11:52.056Z,83.92
2019-02-22T09:12:51.894Z,83.98
2019-02-22T09:13:51.987Z,83.9
2019-02-22T09:14:51.961Z,83.72
2019-02-22T09:15:52.658Z,84.04
2019-02-22T09:16:51.940Z,83.87
2019-02-22T09:17:52.033Z,83.68
2019-02-22T09:18:52.991Z,83.84
2019-02-22T09:19:52.080Z,83.84
2019-02-22T09:20:52.189Z,83.67
2019-02-22T09:21:53.671Z,83.75
2019-02-22T09:22:51.990Z,83.6
2019-02-22T09:23:52.117Z,83.43
2019-02-22T09:24:52.410Z,83.72
2019-02-22T09:25:52.116Z,83.62
2019-02-22T09:26:51.906Z,83.47
2019-02-22T09:27:52.330Z,83.38
2019-02-22T09:28:52.131Z,83.51
2019-02-22T09:29:58.740Z,83.36
2019-02-22T09:30:52.355Z,83.5
2019-02-22T09:31:51.883Z,83.49
2019-02-22T09:32:52.680Z,83.58
2019-02-22T09:33:51.956Z,83.38
2019-02-22T09:34:51.949Z,83.27
2019-02-22T09:35:52.076Z,83.07
2019-02-22T09:36:52.108Z,83.31
2019-02-22T09:37:52.047Z,83.01
2019-02-22T09:38:51.856Z,82.91
2019-02-22T09:39:51.799Z,83.04
2019-02-22T09:40:52.466Z,82.97
2019-02-22T09:41:53.540Z,82.77
2019-02-22T09:42:52.225Z,82.55
2019-02-22T09:43:54.851Z,82.86
2019-02-22T09:44:52.133Z,82.76
2019-02-22T09:45:52.037Z,82.76
2019-02-22T09:46:51.973Z,82.74
2019-02-22T09:47:52.052Z,82.39
2019-02-22T09:48:52.367Z,82.31
2019-02-22T09:49:51.787Z,82.43
2019-02-22T09:50:52.178Z,82.52
2019-02-22T09:51:51.896Z,82.4
2019-02-22T09:52:51.937Z,82.42
2019-02-22T09:53:53.660Z,82.06
2019-02-22T09:54:51.947Z,82.25
2019-02-22T09:55:52.252Z,82.23
2019-02-22T09:56:53.627Z,82.44
2019-02-22T09:57:51.876Z,82.48
2019-02-22T09:58:52.381Z,82.49
2019-02-22T09:59:52.081Z,82.54
2019-02-22T10:00:52.240Z,82.58
2019-02-22T10:01:52.145Z,82.07
2019-02-22T10:02:52.733Z,81.74
2019-02-22T10:03:52.377Z,81.88
2019-02-22T10:04:54.764Z,81.79
2019-02-22T10:05:51.768Z,81.94
2019-02-22T10:06:51.928Z,81.87
2019-02-22T10:07:52.089Z,81.72
2019-02-22T10:08:52.093Z,81.62
2019-02-22T10:09:52.099Z,81.81
2019-02-22T10:10:52.107Z,81.88
2019-02-22T10:11:52.116Z,81.7
2019-02-22T10:12:52.329Z,81.31
2019-02-22T10:13:52.081Z,81.41
2019-02-22T10:14:52.134Z,80.92
2019-02-22T10:15:53.615Z,81.36
2019-02-22T10:16:52.008Z,81.36
2019-02-22T10:17:52.048Z,81.45
2019-02-22T10:18:52.171Z,81.21
2019-02-22T10:19:51.967Z,81.21
2019-02-22T10:20:51.971Z,81.27
2019-02-22T10:21:52.281Z,81.34
2019-02-22T10:22:52.393Z,81.17
2019-02-22T10:23:51.768Z,80.49
2019-02-22T10:24:52.033Z,80.12
2019-02-22T10:25:52.762Z,79.86
2019-02-22T10:26:51.944Z,80.21
2019-02-22T10:27:51.897Z,79.64
2019-02-22T10:28:51.949Z,79.76
2019-02-22T10:29:52.081Z,79.9
2019-02-22T10:30:51.843Z,79.49
2019-02-22T10:31:52.156Z,79.57
2019-02-22T10:32:53.595Z,79.56
2019-02-22T10:33:52.053Z,79.55
2019-02-22T10:34:51.918Z,79.73
2019-02-22T10:35:52.001Z,79.68
2019-02-22T10:36:51.977Z,79.63
2019-02-22T10:37:51.900Z,79.92
2019-02-22T10:38:51.994Z,80.06
2019-02-22T10:39:51.758Z,80.07
2019-02-22T10:40:52.531Z,80.17
2019-02-22T10:41:51.901Z,80.2
2019-02-22T10:42:53.578Z,79.78
2019-02-22T10:43:53.578Z,79.43
2019-02-22T10:44:51.895Z,78.51
2019-02-22T10:45:52.030Z,78.81
2019-02-22T10:46:52.755Z,78.98
2019-02-22T10:47:52.866Z,78.49
2019-02-22T10:48:52.882Z,78.75
2019-02-22T10:49:52.572Z,77.53
2019-02-22T10:50:51.728Z,77.78
2019-02-22T10:51:52.042Z,77.64
2019-02-22T10:53:01.650Z,77.14
2019-02-22T10:53:51.861Z,77.68
2019-02-22T10:54:51.723Z,77.98
2019-02-22T10:55:51.748Z,78.05
2019-02-22T10:56:52.003Z,77.48
2019-02-22T10:57:52.111Z,77.42
2019-02-22T10:58:51.843Z,77.68
2019-02-22T10:59:52.229Z,77.35
2019-02-22T11:00:51.953Z,77.62
2019-02-22T11:01:52.449Z,76.72
2019-02-22T11:02:53.546Z,76.8
2019-02-22T11:03:52.051Z,76.73
2019-02-22T11:04:52.215Z,77.05
2019-02-22T11:05:53.565Z,77.3
2019-02-22T11:06:51.969Z,77.18
2019-02-22T11:07:52.485Z,77.17
2019-02-22T11:08:52.005Z,77.47
2019-02-22T11:09:52.645Z,77.02
2019-02-22T11:10:52.609Z,76.81
2019-02-22T11:11:52.105Z,76.42
2019-02-22T11:12:52.005Z,76.66
2019-02-22T11:13:52.014Z,76.47
2019-02-22T11:14:51.803Z,76.58
2019-02-22T11:15:53.517Z,76.49
2019-02-22T11:16:51.673Z,75.58
2019-02-22T11:17:52.148Z,75.16
2019-02-22T11:18:52.049Z,74.67
2019-02-22T11:19:52.060Z,74.98
2019-02-22T11:20:51.877Z,75.14
2019-02-22T11:21:52.067Z,75.31
2019-02-22T11:22:52.182Z,75.43
2019-02-22T11:23:52.085Z,74.92
2019-02-22T11:24:53.514Z,75.46
2019-02-22T11:25:52.094Z,76.12
2019-02-22T11:26:52.038Z,76.61
2019-02-22T11:27:51.699Z,76.87
2019-02-22T11:28:52.014Z,76.92
2019-02-22T11:29:51.696Z,77.04
2019-02-22T11:30:51.923Z,76.86
2019-02-22T11:31:52.035Z,76.82
2019-02-22T11:32:52.456Z,76.5
2019-02-22T11:33:52.048Z,76.52
2019-02-22T11:34:51.947Z,77
2019-02-22T11:35:51.713Z,76.99
2019-02-22T11:36:51.966Z,76.18
2019-02-22T11:37:52.087Z,75.21
2019-02-22T11:38:53.508Z,73.13
2019-02-22T11:39:51.690Z,73.16
2019-02-22T11:40:52.205Z,73.49
2019-02-22T11:41:51.997Z,74.03
2019-02-22T11:42:52.226Z,73.38
2019-02-22T11:43:51.891Z,73.58
2019-02-22T11:44:51.693Z,73.54
2019-02-22T11:45:52.334Z,74.35
2019-02-22T11:46:51.689Z,73.15
2019-02-22T11:47:51.960Z,73.4
2019-02-22T11:48:53.494Z,73.37
2019-02-22T11:49:51.467Z,73.5
2019-02-22T11:50:52.061Z,73.27
2019-02-22T11:51:51.934Z,73.28
2019-02-22T11:52:51.853Z,73.58
2019-02-22T11:53:51.898Z,73.54
2019-02-22T11:54:53.479Z,73.76
2019-02-22T11:55:51.892Z,73.49
2019-02-22T11:56:51.901Z,72.89
2019-02-22T11:57:52.010Z,73.02
2019-02-22T11:58:51.602Z,72.09
2019-02-22T11:59:51.827Z,72.04
2019-02-22T12:00:52.002Z,71.63
2019-02-22T12:01:51.926Z,72.77
2019-02-22T12:02:51.937Z,72.6
2019-02-22T12:03:51.733Z,72.04
2019-02-22T12:04:51.949Z,72.27
2019-02-22T12:05:52.258Z,71.5
2019-02-22T12:06:51.880Z,68.36
2019-02-22T12:07:51.621Z,68.47
2019-02-22T12:08:51.813Z,68.83
2019-02-22T12:09:52.087Z,69.46
2019-02-22T12:10:51.892Z,69.11
2019-02-22T12:11:52.045Z,68.79
2019-02-22T12:12:51.690Z,68.8
2019-02-22T12:13:51.804Z,68.4
2019-02-22T12:14:52.389Z,67.99
2019-02-22T12:15:51.870Z,68.26
2019-02-22T12:16:52.847Z,68.29
2019-02-22T12:17:52.343Z,68.05
2019-02-22T12:18:52.639Z,68.1
2019-02-22T12:19:51.784Z,68.07
2019-02-22T12:20:51.789Z,68.55
2019-02-22T12:21:51.688Z,67.54
2019-02-22T12:22:51.725Z,67.03
2019-02-22T12:23:53.440Z,66.99
2019-02-22T12:24:51.667Z,67.37
2019-02-22T12:25:51.684Z,66.46
2019-02-22T12:26:51.712Z,67.1
2019-02-22T12:27:52.007Z,66.65
2019-02-22T12:28:52.112Z,65.57
2019-02-22T12:29:51.647Z,65.87
2019-02-22T12:30:51.724Z,64.73
2019-02-22T12:31:52.033Z,63.74
2019-02-22T12:32:52.034Z,62.97
2019-02-22T12:33:51.706Z,63.59
2019-02-22T12:34:52.149Z,62.67
2019-02-22T12:35:51.717Z,63.13
2019-02-22T12:36:52.012Z,63.69
2019-02-22T12:37:51.708Z,63.51
2019-02-22T12:38:52.181Z,64
2019-02-22T12:39:52.080Z,62.71
2019-02-22T12:40:52.087Z,62.09
2019-02-22T12:41:53.667Z,62.22
2019-02-22T12:42:51.705Z,61.99
2019-02-22T12:43:52.218Z,61.83
2019-02-22T12:45:02.161Z,62.28
2019-02-22T12:45:51.670Z,62.18
2019-02-22T12:46:52.599Z,62.32
2019-02-22T12:47:51.678Z,61.2
2019-02-22T12:48:51.937Z,61.17
2019-02-22T12:49:51.654Z,61.26
2019-02-22T12:50:52.359Z,62.01
2019-02-22T12:51:51.955Z,60.72
2019-02-22T12:52:51.980Z,60.33
2019-02-22T12:53:52.074Z,60.66
2019-02-22T12:54:51.533Z,60.13
2019-02-22T12:55:51.676Z,59.53
2019-02-22T12:56:57.249Z,60.17
2019-02-22T12:57:51.623Z,59.96
2019-02-22T12:58:51.597Z,59.42
2019-02-22T12:59:51.807Z,59.85
2019-02-22T13:00:52.771Z,59.98